createdAt,value
2018-01-10T00:01:09.328Z,10.73
2018-01-10T00:03:37.548Z,12.37
2018-01-10T00:06:05.018Z,12.20
2018-01-10T00:08:32.508Z,17.10
2018-01-10T00:11:00.766Z,13.90
2018-01-10T00:13:28.350Z,17.13
2018-01-10T00:15:57.318Z,16.60
2018-01-10T00:18:24.800Z,12.43
2018-01-10T00:20:53.032Z,13.50
2018-01-10T00:23:20.515Z,13.00
2018-01-10T00:25:47.993Z,14.37
2018-01-10T00:28:16.249Z,15.45
2018-01-10T00:30:43.738Z,17.73
2018-01-10T00:33:12.008Z,13.57
2018-01-10T00:35:40.240Z,12.33
2018-01-10T00:38:07.732Z,13.07
2018-01-10T00:40:35.977Z,16.93
2018-01-10T00:43:03.469Z,18.97
2018-01-10T00:45:31.716Z,20.87
2018-01-10T00:47:59.195Z,15.40
2018-01-10T00:50:27.463Z,15.27
2018-01-10T00:52:55.729Z,14.80
2018-01-10T00:55:23.221Z,16.27
2018-01-10T00:57:51.469Z,12.30
2018-01-10T01:00:18.954Z,13.30
2018-01-10T01:02:47.196Z,11.53
2018-01-10T01:05:14.680Z,16.80
2018-01-10T01:07:42.924Z,15.27
2018-01-10T01:10:11.176Z,16.57
2018-01-10T01:12:38.652Z,14.53
2018-01-10T01:15:06.115Z,13.20
2018-01-10T01:17:33.586Z,13.93
2018-01-10T01:20:01.079Z,16.03
2018-01-10T01:22:28.559Z,15.13
2018-01-10T01:24:56.036Z,14.43
2018-01-10T01:27:23.519Z,14.57
2018-01-10T01:29:50.999Z,12.93
2018-01-10T01:32:19.229Z,15.33
2018-01-10T01:34:46.743Z,13.13
2018-01-10T01:37:14.215Z,11.87
2018-01-10T01:39:41.705Z,14.70
2018-01-10T01:42:09.177Z,13.30
2018-01-10T01:44:36.669Z,14.30
2018-01-10T01:47:04.908Z,17.13
2018-01-10T01:49:32.404Z,14.47
2018-01-10T01:51:59.867Z,16.23
2018-01-10T01:54:27.363Z,12.27
2018-01-10T01:56:54.852Z,14.80
2018-01-10T01:59:22.334Z,11.53
2018-01-10T02:01:49.812Z,11.40
2018-01-10T02:04:17.307Z,16.20
2018-01-10T02:06:44.771Z,14.50
2018-01-10T02:09:12.259Z,15.33
2018-01-10T02:11:40.517Z,16.37
2018-01-10T02:14:08.763Z,13.70
2018-01-10T02:16:36.240Z,12.40
2018-01-10T02:19:05.288Z,14.17
2018-01-10T02:21:32.772Z,21.37
2018-01-10T02:24:00.252Z,14.00
2018-01-10T02:26:27.720Z,13.87
2018-01-10T02:28:55.200Z,14.38
2018-01-10T02:31:23.449Z,13.00
2018-01-10T02:33:52.527Z,15.57
2018-01-10T02:36:20.015Z,19.77
2018-01-10T02:38:48.263Z,16.13
2018-01-10T02:41:15.738Z,14.50
2018-01-10T02:43:43.203Z,13.07
2018-01-10T02:46:11.480Z,17.13
2018-01-10T02:48:38.940Z,16.07
2018-01-10T02:51:07.199Z,18.37
2018-01-10T02:53:34.668Z,19.73
2018-01-10T02:56:02.160Z,23.70
2018-01-10T02:58:29.639Z,18.23
2018-01-10T03:00:57.134Z,14.77
2018-01-10T03:03:24.599Z,14.20
2018-01-10T03:05:52.080Z,16.20
2018-01-10T03:08:19.556Z,18.63
2018-01-10T03:10:47.031Z,18.93
2018-01-10T03:13:14.499Z,21.90
2018-01-10T03:15:41.988Z,18.03
2018-01-10T03:18:09.467Z,14.50
2018-01-10T03:20:37.716Z,14.30
2018-01-10T03:23:05.183Z,15.40
2018-01-10T03:25:33.436Z,13.50
2018-01-10T03:28:01.672Z,14.30
2018-01-10T03:30:29.159Z,13.63
2018-01-10T03:32:56.635Z,13.37
2018-01-10T03:35:24.336Z,14.38
2018-01-10T03:37:51.803Z,18.17
2018-01-10T03:40:19.339Z,13.30
2018-01-10T03:42:47.579Z,15.70
2018-01-10T03:45:15.047Z,14.53
2018-01-10T03:47:44.060Z,13.30
2018-01-10T03:50:12.285Z,16.00
2018-01-10T03:52:39.775Z,14.10
2018-01-10T03:55:07.258Z,13.70
2018-01-10T03:57:35.504Z,14.00
2018-01-10T04:00:03.744Z,13.87
2018-01-10T04:02:31.227Z,12.40
2018-01-10T04:04:59.479Z,17.20
2018-01-10T04:07:26.975Z,15.90
2018-01-10T04:09:54.461Z,14.77
2018-01-10T04:12:22.710Z,13.97
2018-01-10T04:14:50.944Z,14.30
2018-01-10T04:17:18.439Z,19.07
2018-01-10T04:19:45.947Z,14.07
2018-01-10T04:22:13.476Z,14.70
2018-01-10T04:24:41.713Z,13.83
2018-01-10T04:27:09.206Z,11.93
2018-01-10T04:29:37.443Z,11.87
2018-01-10T04:32:04.920Z,14.13
2018-01-10T04:34:32.390Z,13.30
2018-01-10T04:37:00.630Z,14.23
2018-01-10T04:39:28.110Z,15.60
2018-01-10T04:41:55.596Z,13.63
2018-01-10T04:44:23.828Z,14.80
2018-01-10T04:46:51.311Z,13.00
2018-01-10T04:49:18.789Z,16.63
2018-01-10T04:51:47.049Z,13.88
2018-01-10T04:54:14.521Z,14.40
2018-01-10T04:56:42.756Z,15.40
2018-01-10T04:59:10.237Z,16.43
2018-01-10T05:01:37.716Z,21.13
2018-01-10T05:04:06.911Z,12.57
2018-01-10T05:06:34.399Z,16.43
2018-01-10T05:09:01.880Z,14.23
2018-01-10T05:11:29.343Z,15.93
2018-01-10T05:13:56.830Z,15.32
2018-01-10T05:16:25.065Z,17.13
2018-01-10T05:18:52.567Z,16.53
2018-01-10T05:21:20.803Z,17.73
2018-01-10T05:23:49.421Z,16.48
2018-01-10T05:26:16.890Z,16.80
2018-01-10T05:28:45.161Z,16.67
2018-01-10T05:31:12.719Z,15.10
2018-01-10T05:33:40.213Z,17.63
2018-01-10T05:36:07.687Z,16.50
2018-01-10T05:38:35.183Z,20.67
2018-01-10T05:41:02.652Z,19.30
2018-01-10T05:43:30.892Z,19.70
2018-01-10T05:46:05.040Z,16.23
2018-01-10T05:48:33.291Z,18.27
2018-01-10T05:51:00.776Z,20.03
2018-01-10T05:53:29.064Z,20.33
2018-01-10T05:55:57.317Z,19.13
2018-01-10T05:58:41.168Z,16.37
2018-01-10T06:01:09.432Z,25.57
2018-01-10T06:03:36.918Z,18.17
2018-01-10T06:06:05.356Z,18.17
2018-01-10T06:08:32.852Z,18.97
2018-01-10T06:11:01.088Z,16.80
2018-01-10T06:13:28.571Z,21.77
2018-01-10T06:15:56.804Z,17.10
2018-01-10T06:18:25.861Z,19.52
2018-01-10T06:20:53.351Z,18.30
2018-01-10T06:23:20.846Z,20.73
2018-01-10T06:25:48.315Z,24.30
2018-01-10T06:28:16.568Z,18.97
2018-01-10T06:30:45.555Z,20.43
2018-01-10T06:33:13.463Z,25.60
2018-01-10T06:35:41.701Z,26.53
2018-01-10T06:38:09.175Z,19.00
2018-01-10T06:40:37.419Z,17.70
2018-01-10T06:43:04.893Z,20.27
2018-01-10T06:45:32.378Z,25.50
2018-01-10T06:48:00.635Z,20.23
2018-01-10T06:50:28.126Z,20.48
2018-01-10T06:52:56.361Z,28.57
2018-01-10T06:55:23.855Z,26.33
2018-01-10T06:57:52.140Z,17.00
2018-01-10T07:00:21.324Z,22.20
2018-01-10T07:02:49.593Z,23.07
2018-01-10T07:05:18.860Z,26.67
2018-01-10T07:07:46.698Z,23.17
2018-01-10T07:10:14.171Z,24.13
2018-01-10T07:12:41.659Z,18.90
2018-01-10T07:15:10.667Z,23.43
2018-01-10T07:17:38.921Z,24.37
2018-01-10T07:20:06.412Z,24.73
2018-01-10T07:22:35.540Z,29.13
2018-01-10T07:25:03.036Z,24.10
2018-01-10T07:27:30.518Z,26.70
2018-01-10T07:29:58.797Z,22.93
2018-01-10T07:32:27.031Z,20.20
2018-01-10T07:34:54.508Z,20.27
2018-01-10T07:37:21.982Z,19.83
2018-01-10T07:39:50.231Z,19.03
2018-01-10T07:42:17.717Z,22.13
2018-01-10T07:44:46.003Z,26.63
2018-01-10T07:47:14.247Z,19.07
2018-01-10T07:49:42.672Z,20.97
2018-01-10T07:52:10.162Z,20.00
2018-01-10T07:54:37.665Z,22.80
2018-01-10T07:57:05.915Z,19.67
2018-01-10T07:59:33.430Z,23.60
2018-01-10T08:02:00.909Z,18.97
2018-01-10T08:04:28.411Z,32.70
2018-01-10T08:06:56.700Z,24.53
2018-01-10T08:09:24.935Z,34.07
2018-01-10T08:11:52.943Z,21.77
2018-01-10T08:14:21.186Z,24.90
2018-01-10T08:16:49.289Z,55.27
2018-01-10T08:19:17.525Z,51.45
2018-01-10T08:21:45.024Z,29.90
2018-01-10T08:24:13.267Z,27.43
2018-01-10T08:26:40.763Z,22.93
2018-01-10T08:29:08.247Z,25.33
2018-01-10T08:31:35.756Z,23.93
2018-01-10T08:34:03.228Z,19.47
2018-01-10T08:36:31.490Z,21.87
2018-01-10T08:38:58.961Z,20.93
2018-01-10T08:41:27.215Z,22.80
2018-01-10T08:43:54.691Z,21.73
2018-01-10T08:46:22.948Z,22.23
2018-01-10T08:48:50.517Z,24.43
2018-01-10T08:51:18.015Z,26.13
2018-01-10T08:53:45.477Z,22.40
2018-01-10T08:56:12.979Z,23.50
2018-01-10T08:58:40.458Z,20.20
2018-01-10T09:01:07.935Z,28.73
2018-01-10T09:03:35.429Z,31.90
2018-01-10T09:06:02.938Z,22.47
2018-01-10T09:08:31.212Z,28.40
2018-01-10T09:10:59.464Z,25.73
2018-01-10T09:13:26.965Z,31.00
2018-01-10T09:15:54.428Z,25.90
2018-01-10T09:18:21.906Z,23.23
2018-01-10T09:20:49.403Z,16.50
2018-01-10T09:23:17.656Z,16.70
2018-01-10T09:25:45.127Z,16.13
2018-01-10T09:28:12.599Z,14.97
2018-01-10T09:30:40.104Z,11.30
2018-01-10T09:33:07.566Z,12.40
2018-01-10T09:35:35.086Z,10.30
2018-01-10T09:38:03.340Z,11.03
2018-01-10T09:40:32.320Z,9.77
2018-01-10T09:42:59.803Z,9.00
2018-01-10T09:45:27.287Z,8.40
2018-01-10T09:47:54.779Z,9.23
2018-01-10T09:50:22.247Z,10.93
2018-01-10T09:52:49.745Z,7.50
2018-01-10T09:55:17.982Z,7.97
2018-01-10T09:57:45.468Z,8.87
2018-01-10T10:00:12.950Z,10.90
2018-01-10T10:02:40.451Z,11.33
2018-01-10T10:05:07.913Z,7.27
2018-01-10T10:07:35.409Z,10.93
2018-01-10T10:10:03.641Z,13.83
2018-01-10T10:12:31.114Z,14.50
2018-01-10T10:14:58.587Z,14.80
2018-01-10T10:17:28.492Z,12.57
2018-01-10T10:19:55.976Z,18.80
2018-01-10T10:22:24.210Z,15.13
2018-01-10T10:24:52.565Z,14.30
2018-01-10T10:27:20.049Z,15.77
2018-01-10T10:29:47.528Z,12.45
2018-01-10T10:32:15.011Z,13.67
2018-01-10T10:34:43.256Z,14.83
2018-01-10T10:37:10.728Z,14.20
2018-01-10T10:39:38.991Z,15.30
2018-01-10T10:42:06.548Z,21.43
2018-01-10T10:44:34.845Z,16.60
2018-01-10T10:47:03.125Z,16.20
2018-01-10T10:49:32.080Z,16.57
2018-01-10T10:51:59.556Z,14.23
2018-01-10T10:54:27.048Z,16.43
2018-01-10T10:56:54.513Z,13.67
2018-01-10T10:59:22.000Z,13.33
2018-01-10T11:01:50.235Z,12.97
2018-01-10T11:04:17.747Z,15.73
2018-01-10T11:06:45.215Z,11.77
2018-01-10T11:09:12.700Z,10.80
2018-01-10T11:11:40.932Z,18.27
2018-01-10T11:14:08.440Z,15.80
2018-01-10T11:16:35.925Z,15.67
2018-01-10T11:19:03.423Z,15.13
2018-01-10T11:21:30.902Z,15.47
2018-01-10T11:23:59.171Z,22.47
2018-01-10T11:26:27.428Z,41.30
2018-01-10T11:28:54.921Z,31.57
2018-01-10T11:31:22.399Z,22.70
2018-01-10T11:33:49.901Z,21.70
2018-01-10T11:36:17.462Z,26.13
2018-01-10T11:38:44.941Z,17.30
2018-01-10T11:41:13.211Z,19.00
2018-01-10T11:43:40.683Z,21.07
2018-01-10T11:46:08.956Z,22.00
2018-01-10T11:48:37.179Z,22.73
2018-01-10T11:51:04.674Z,20.90
2018-01-10T11:53:32.924Z,17.40
2018-01-10T11:56:00.411Z,19.10
2018-01-10T11:58:28.674Z,14.90
2018-01-10T12:00:56.825Z,16.57
2018-01-10T12:03:24.305Z,20.03
2018-01-10T12:05:51.780Z,20.80
2018-01-10T12:08:20.025Z,21.70
2018-01-10T12:10:47.527Z,14.77
2018-01-10T12:13:15.903Z,17.50
2018-01-10T12:15:44.180Z,14.23
2018-01-10T12:18:11.712Z,16.60
2018-01-10T12:20:39.203Z,18.33
2018-01-10T12:23:07.453Z,18.97
2018-01-10T12:25:34.939Z,19.17
2018-01-10T12:28:02.439Z,20.00
2018-01-10T12:30:29.933Z,22.45
2018-01-10T12:32:57.436Z,18.57
2018-01-10T12:35:24.924Z,21.00
2018-01-10T12:37:52.415Z,14.43
2018-01-10T12:40:20.681Z,18.60
2018-01-10T12:42:48.216Z,17.90
2018-01-10T12:45:15.721Z,19.50
2018-01-10T12:47:43.211Z,21.60
2018-01-10T12:50:10.729Z,21.03
2018-01-10T12:52:38.967Z,19.02
2018-01-10T12:55:06.456Z,15.70
2018-01-10T12:57:34.735Z,15.93
2018-01-10T13:00:02.975Z,20.20
2018-01-10T13:02:32.808Z,14.95
2018-01-10T13:05:00.263Z,22.13
2018-01-10T13:07:27.768Z,18.83
2018-01-10T13:09:55.277Z,21.03
2018-01-10T13:12:23.714Z,19.57
2018-01-10T13:14:51.197Z,17.60
2018-01-10T13:17:18.680Z,13.83
2018-01-10T13:19:46.931Z,20.17
2018-01-10T13:22:14.411Z,15.97
2018-01-10T13:24:41.972Z,19.27
2018-01-10T13:27:09.554Z,18.00
2018-01-10T13:29:37.796Z,19.00
2018-01-10T13:32:05.403Z,19.33
2018-01-10T13:34:32.883Z,16.77
2018-01-10T13:37:00.372Z,19.05
2018-01-10T13:39:27.840Z,20.17
2018-01-10T13:41:55.332Z,16.93
2018-01-10T13:44:22.808Z,20.80
2018-01-10T13:46:50.328Z,19.03
2018-01-10T13:49:19.306Z,25.70
2018-01-10T13:51:46.808Z,23.93
2018-01-10T13:54:14.296Z,22.33
2018-01-10T13:56:41.768Z,20.57
2018-01-10T13:59:09.260Z,22.97
2018-01-10T14:01:37.536Z,21.13
2018-01-10T14:04:05.013Z,23.30
2018-01-10T14:06:32.505Z,21.33
2018-01-10T14:08:59.993Z,21.37
2018-01-10T14:11:27.501Z,19.27
2018-01-10T14:13:55.016Z,21.20
2018-01-10T14:16:23.260Z,29.10
2018-01-10T14:18:50.757Z,31.00
2018-01-10T14:21:19.008Z,21.00
2018-01-10T14:23:46.503Z,26.33
2018-01-10T14:26:13.976Z,21.23
2018-01-10T14:31:34.168Z,21.30
2018-01-10T14:34:01.648Z,27.40
2018-01-10T14:36:29.127Z,35.77
2018-01-10T14:38:56.624Z,27.97
2018-01-10T14:41:24.848Z,28.33
2018-01-10T14:43:52.343Z,28.13
2018-01-10T14:46:19.815Z,36.13
2018-01-10T14:48:48.072Z,30.70
2018-01-10T14:51:15.543Z,24.30
2018-01-10T14:53:43.832Z,29.13
2018-01-10T14:56:12.064Z,23.60
2018-01-10T14:58:39.651Z,24.90
2018-01-10T15:01:08.621Z,27.23
2018-01-10T15:03:36.116Z,27.03
2018-01-10T15:06:04.348Z,21.90
2018-01-10T15:08:31.852Z,20.63
2018-01-10T15:11:00.088Z,29.63
2018-01-10T15:13:27.567Z,20.03
2018-01-10T15:15:55.051Z,24.63
2018-01-10T15:18:23.391Z,26.33
2018-01-10T15:20:50.868Z,22.83
2018-01-10T15:23:19.130Z,25.80
2018-01-10T15:25:46.615Z,24.80
2018-01-10T15:28:14.872Z,32.60
2018-01-10T15:30:42.334Z,30.17
2018-01-10T15:33:10.597Z,21.87
2018-01-10T15:35:38.067Z,21.03
2018-01-10T15:38:06.312Z,26.60
2018-01-10T15:40:33.800Z,29.60
2018-01-10T15:43:02.036Z,26.60
2018-01-10T15:45:29.548Z,18.80
2018-01-10T15:47:57.812Z,21.47
2018-01-10T15:50:26.068Z,22.23
2018-01-10T15:52:53.543Z,26.30
2018-01-10T15:55:22.004Z,25.43
2018-01-10T15:57:49.477Z,30.17
2018-01-10T16:00:16.952Z,27.40
2018-01-10T16:02:45.184Z,22.40
2018-01-10T16:05:12.713Z,20.07
2018-01-10T16:07:40.184Z,26.70
2018-01-10T16:10:07.679Z,22.33
2018-01-10T16:12:35.146Z,20.77
2018-01-10T16:15:03.392Z,22.70
2018-01-10T16:17:31.655Z,15.90
2018-01-10T16:19:59.136Z,19.97
2018-01-10T16:22:27.236Z,23.07
2018-01-10T16:24:55.499Z,24.50
2018-01-10T16:27:22.971Z,30.13
2018-01-10T16:29:51.233Z,29.33
2018-01-10T16:32:18.694Z,33.13
2018-01-10T16:34:46.942Z,26.50
2018-01-10T16:37:14.447Z,26.37
2018-01-10T16:39:41.896Z,29.63
2018-01-10T16:42:10.162Z,28.10
2018-01-10T16:44:37.700Z,36.63
2018-01-10T16:47:05.171Z,38.40
2018-01-10T16:49:32.641Z,30.73
2018-01-10T16:52:00.896Z,25.13
2018-01-10T16:54:28.390Z,33.07
2018-01-10T16:56:56.639Z,31.37
2018-01-10T16:59:27.247Z,37.97
2018-01-10T17:01:55.490Z,27.58
2018-01-10T17:04:23.704Z,26.87
2018-01-10T17:06:51.196Z,28.57
2018-01-10T17:09:19.440Z,27.63
2018-01-10T17:11:46.919Z,26.43
2018-01-10T17:14:15.171Z,29.98
2018-01-10T17:16:42.646Z,20.90
2018-01-10T17:19:10.124Z,25.00
2018-01-10T17:21:38.488Z,29.70
2018-01-10T17:24:05.959Z,42.80
2018-01-10T17:26:34.228Z,38.03
2018-01-10T17:29:02.490Z,37.47
2018-01-10T17:31:29.963Z,34.37
2018-01-10T17:33:58.200Z,31.03
2018-01-10T17:36:25.672Z,35.77
2018-01-10T17:38:53.168Z,33.40
2018-01-10T17:41:21.415Z,32.50
2018-01-10T17:43:48.879Z,20.10
2018-01-10T17:46:17.124Z,19.43
2018-01-10T17:48:44.609Z,17.43
2018-01-10T17:51:12.092Z,16.87
2018-01-10T17:53:39.562Z,21.33
2018-01-10T17:56:07.823Z,17.90
2018-01-10T17:58:35.301Z,13.07
2018-01-10T18:01:02.805Z,11.00
2018-01-10T18:03:30.272Z,16.00
2018-01-10T18:05:57.761Z,15.30
2018-01-10T18:08:25.256Z,11.10
2018-01-10T18:10:52.744Z,11.80
2018-01-10T18:13:20.252Z,12.63
2018-01-10T18:15:47.731Z,19.23
2018-01-10T18:18:15.219Z,13.73
2018-01-10T18:20:42.708Z,12.00
2018-01-10T18:23:10.180Z,15.57
2018-01-10T18:25:37.660Z,12.93
2018-01-10T18:28:05.140Z,11.37
2018-01-10T18:30:32.612Z,17.10
2018-01-10T18:33:00.943Z,18.10
2018-01-10T18:35:28.432Z,21.20
2018-01-10T18:37:55.913Z,24.87
2018-01-10T18:40:24.169Z,20.80
2018-01-10T18:42:51.648Z,14.30
2018-01-10T18:45:19.877Z,11.50
2018-01-10T18:47:47.364Z,12.07
2018-01-10T18:50:14.851Z,12.37
2018-01-10T18:52:42.355Z,19.50
2018-01-10T18:55:09.828Z,23.20
2018-01-10T18:57:37.331Z,13.43
2018-01-10T19:00:04.812Z,15.73
2018-01-10T19:02:32.287Z,23.03
2018-01-10T19:04:59.801Z,11.20
2018-01-10T19:07:28.067Z,10.97
2018-01-10T19:09:56.312Z,15.63
2018-01-10T19:12:23.812Z,20.20
2018-01-10T19:14:51.318Z,18.87
2018-01-10T19:17:19.495Z,26.90
2018-01-10T19:19:46.971Z,27.70
2018-01-10T19:22:14.456Z,21.00
2018-01-10T19:24:42.714Z,14.43
2018-01-10T19:27:11.113Z,13.27
2018-01-10T19:29:38.616Z,20.00
2018-01-10T19:32:06.103Z,19.77
2018-01-10T19:34:33.600Z,14.63
2018-01-10T19:37:01.085Z,18.75
2018-01-10T19:39:28.591Z,18.07
2018-01-10T19:41:56.852Z,15.60
2018-01-10T19:44:24.346Z,13.57
2018-01-10T19:46:52.589Z,15.57
2018-01-10T19:49:20.096Z,19.27
2018-01-10T19:51:48.735Z,14.43
2018-01-10T19:54:17.004Z,15.20
2018-01-10T19:56:45.264Z,12.63
2018-01-10T19:59:12.771Z,12.93
2018-01-10T20:01:40.259Z,10.27
2018-01-10T20:04:08.501Z,10.50
2018-01-10T20:06:36.388Z,10.30
2018-01-10T20:09:03.889Z,10.63
2018-01-10T20:11:31.390Z,10.53
2018-01-10T20:13:58.915Z,13.57
2018-01-10T20:16:26.431Z,12.83
2018-01-10T20:18:53.928Z,13.10
2018-01-10T20:21:21.403Z,16.60
2018-01-10T20:23:49.682Z,14.40
2018-01-10T20:26:17.970Z,25.17
2018-01-10T20:28:46.224Z,27.47
2018-01-10T20:31:14.173Z,11.63
2018-01-10T20:33:42.433Z,11.83
2018-01-10T20:36:09.941Z,18.13
2018-01-10T20:38:38.206Z,18.60
2018-01-10T20:41:06.456Z,15.03
2018-01-10T20:43:33.958Z,16.87
2018-01-10T20:46:02.242Z,12.97
2018-01-10T20:48:30.617Z,12.70
2018-01-10T20:50:58.134Z,11.90
2018-01-10T20:53:26.924Z,15.73
2018-01-10T20:55:54.419Z,17.80
2018-01-10T20:58:21.975Z,16.53
2018-01-10T21:00:50.215Z,12.70
2018-01-10T21:03:17.689Z,16.77
2018-01-10T21:05:45.944Z,13.40
2018-01-10T21:08:13.421Z,11.17
2018-01-10T21:10:41.671Z,9.40
2018-01-10T21:13:10.673Z,10.03
2018-01-10T21:15:38.160Z,8.00
2018-01-10T21:18:06.446Z,11.80
2018-01-10T21:20:34.734Z,13.07
2018-01-10T21:23:02.221Z,14.03
2018-01-10T21:25:29.706Z,12.80
2018-01-10T21:27:57.184Z,10.90
2018-01-10T21:30:25.419Z,7.00
2018-01-10T21:32:52.891Z,5.30
2018-01-10T21:35:20.619Z,12.47
2018-01-10T21:37:48.088Z,10.25
2018-01-10T21:40:15.576Z,6.30
2018-01-10T21:42:48.375Z,13.53
2018-01-10T21:45:16.611Z,14.80
2018-01-10T21:47:44.987Z,16.10
2018-01-10T21:50:12.484Z,12.50
2018-01-10T21:52:41.623Z,6.97
2018-01-10T21:55:09.123Z,4.50
2018-01-10T21:57:36.592Z,5.97
2018-01-10T22:00:04.848Z,9.20
2018-01-10T22:02:32.323Z,11.80
2018-01-10T22:04:59.811Z,12.80
2018-01-10T22:07:27.284Z,12.90
2018-01-10T22:09:54.749Z,15.83
2018-01-10T22:12:22.272Z,13.40
2018-01-10T22:14:50.508Z,14.47
2018-01-10T22:17:18.009Z,14.77
2018-01-10T22:19:46.272Z,13.27
2018-01-10T22:22:15.968Z,9.88
2018-01-10T22:24:43.451Z,12.85
2018-01-10T22:27:11.721Z,8.30
2018-01-10T22:29:39.964Z,7.40
2018-01-10T22:32:09.371Z,7.70
2018-01-10T22:34:37.617Z,8.03
2018-01-10T22:37:05.101Z,7.47
2018-01-10T22:39:33.624Z,9.50
2018-01-10T22:42:01.872Z,12.10
2018-01-10T22:44:29.377Z,16.97
2018-01-10T22:46:56.890Z,18.67
2018-01-10T22:49:24.383Z,15.80
2018-01-10T22:51:51.920Z,16.93
2018-01-10T22:54:20.158Z,15.30
2018-01-10T22:56:48.633Z,14.47
2018-01-10T22:59:16.100Z,13.30
2018-01-10T23:01:43.580Z,13.13
2018-01-10T23:04:11.051Z,10.90
2018-01-10T23:06:39.327Z,6.90
2018-01-10T23:09:07.563Z,11.50
2018-01-10T23:11:35.062Z,5.10
2018-01-10T23:14:03.300Z,8.80
2018-01-10T23:16:30.780Z,8.05
2018-01-10T23:18:58.357Z,6.37
2018-01-10T23:21:26.598Z,5.93
2018-01-10T23:23:54.084Z,7.23
2018-01-10T23:26:23.099Z,9.00
2018-01-10T23:28:50.551Z,6.90
2018-01-10T23:31:18.776Z,6.33
2018-01-10T23:33:46.254Z,7.47
2018-01-10T23:36:13.719Z,11.30
2018-01-10T23:38:41.974Z,9.80
2018-01-10T23:41:09.435Z,8.67
2018-01-10T23:43:36.924Z,8.30
2018-01-10T23:46:06.853Z,10.70
2018-01-10T23:51:28.638Z,11.43
2018-01-10T23:53:56.106Z,8.57
2018-01-10T23:56:23.612Z,9.70
2018-01-10T23:58:51.876Z,12.23
